Date,TemperatureHighF,TemperatureAvgF,TemperatureLowF,DewpointHighF,DewpointAvgF,DewpointLowF,HumidityHigh,HumidityAvg,HumidityLow,PressureMaxIn,PressureMinIn,WindSpeedMaxMPH,WindSpeedAvgMPH,GustSpeedMaxMPH,PrecipitationSumIn
2013-1-1,30.0,24.9,18.1,29.8,23.0,14.2,99,93,81,29.84,29.74,11,3,14,0.00
2013-1-2,23.4,15.6,9.3,16.9,12.3,6.7,98,87,71,29.95,29.82,8,3,10,0.00
2013-1-3,27.9,19.2,8.6,24.2,15.9,7.3,97,88,66,29.93,29.84,17,6,20,0.00
2013-1-4,30.4,25.6,23.2,23.9,19.2,16.9,92,77,58,29.96,29.83,28,12,28,0.00
2013-1-5,35.1,28.3,22.3,26.9,23.2,18.9,90,81,67,30.07,29.86,11,5,14,0.00
2013-1-6,35.2,32.7,28.4,33.4,29.9,27.2,99,89,78,29.98,29.70,13,7,16,0.01
2013-1-7,38.5,30.1,27.9,28.8,26.3,23.8,99,87,60,30.17,29.96,11,4,16,0.00
2013-1-8,45.1,32.7,26.1,29.6,25.5,22.0,90,76,42,30.05,29.97,12,4,12,0.00
2013-1-9,47.3,39.2,33.8,38.9,32.3,27.5,96,77,59,30.22,29.90,18,8,24,0.05
2013-1-10,42.8,33.9,25.2,33.9,28.8,24.9,99,82,60,30.32,29.98,7,2,7,0.00
2013-1-11,56.5,47.5,38.7,54.5,44.0,27.6,99,89,60,29.97,29.61,8,4,12,0.35
2013-1-12,60.1,54.1,47.1,57.1,53.0,46.9,99,96,86,29.79,29.64,11,4,15,0.00
2013-1-13,63.5,53.7,36.3,61.4,52.7,36.1,99,97,86,29.76,29.51,17,5,19,0.20
2013-1-14,35.4,28.3,25.3,35.2,25.5,20.9,99,89,77,30.16,29.78,14,2,21,0.01
2013-1-15,34.7,27.6,25.2,24.5,22.7,21.4,88,82,61,30.13,29.83,3,1,5,0.00
2013-1-16,33.1,30.2,26.8,26.1,23.9,21.6,92,78,64,29.84,29.63,14,4,17,0.00
2013-1-17,35.2,31.8,24.8,30.4,25.9,18.0,91,79,66,29.98,29.75,17,6,22,0.00
2013-1-18,32.7,25.8,18.3,20.0,15.5,8.4,85,65,51,30.19,29.85,14,6,22,0.00
2013-1-19,51.1,41.8,33.4,29.0,24.2,20.3,62,50,38,29.85,29.49,21,9,25,0.00
2013-1-20,46.6,27.2,17.8,34.1,16.5,9.9,95,64,51,29.88,29.44,33,12,36,0.00
2013-1-21,20.1,15.5,7.3,14.5,8.7,-0.6,93,74,58,29.86,29.67,17,8,26,0.00
2013-1-22,9.7,5.8,3.7,3.4,0.2,-5.1,92,78,55,29.99,29.81,21,8,21,0.00
2013-1-23,14.4,9.1,3.6,10.7,3.9,-3.2,95,79,63,30.00,29.80,12,5,13,0.00
2013-1-24,26.1,13.7,5.5,14.6,7.7,0.7,98,78,51,30.27,29.79,7,2,10,0.00
2013-1-25,19.0,14.5,10.4,15.1,10.7,5.7,96,84,76,30.22,29.76,4,2,6,0.00
2013-1-26,25.3,20.5,16.2,21.9,17.5,12.8,99,88,75,30.17,29.80,14,4,14,0.00
2013-1-27,31.8,21.5,7.5,24.4,15.7,5.9,98,79,55,30.23,29.98,5,2,7,0.01
2013-1-28,48.0,40.1,28.4,47.8,39.7,24.2,99,98,84,29.98,29.69,15,5,17,0.06
2013-1-29,59.9,52.8,46.0,57.8,52.0,45.8,99,97,83,29.80,29.42,14,5,18,0.11
2013-1-30,61.7,55.2,35.4,58.2,52.7,35.2,99,92,78,29.43,28.95,24,8,27,0.38
2013-1-31,34.5,23.6,16.0,34.0,18.8,5.3,99,82,62,29.60,29.06,27,15,35,0.00
2013-2-1,15.6,13.1,10.0,11.8,8.0,4.9,96,80,62,30.01,29.59,18,11,25,0.00
2013-2-2,21.9,16.2,10.8,21.0,13.9,5.1,99,90,74,30.00,29.69,12,5,17,0.00
2013-2-3,21.7,17.5,14.5,19.9,15.2,11.7,99,91,70,29.74,29.60,17,7,17,0.00
2013-2-4,25.3,19.5,14.7,22.4,17.9,12.7,99,93,86,29.77,29.60,10,3,14,0.00
2013-2-5,29.7,24.3,20.3,24.6,21.5,17.8,99,89,66,29.67,29.58,11,2,14,0.00
2013-2-6,36.0,24.8,14.5,26.4,17.6,10.4,99,77,36,30.05,29.68,10,3,12,0.07
2013-2-7,47.1,32.4,18.7,30.1,23.2,15.0,85,70,45,30.02,29.62,7,3,9,0.00
2013-2-8,38.7,30.2,23.4,37.5,28.9,23.1,99,95,79,29.96,29.50,16,2,22,0.14
2013-2-9,37.2,25.5,18.9,23.4,20.4,16.2,97,82,47,30.15,29.97,5,1,6,0.01
2013-2-10,47.8,35.5,23.5,35.3,21.4,17.6,83,59,33,30.04,29.59,6,4,11,0.00
2013-2-11,50.4,40.2,32.0,46.6,34.5,24.0,99,80,64,29.66,29.44,27,12,34,0.00
2013-2-12,36.7,30.3,23.7,26.5,24.4,22.8,97,79,64,29.82,29.67,19,7,24,0.00
2013-2-13,33.8,28.0,24.3,27.2,25.6,23.0,99,91,74,29.67,29.50,5,1,9,0.00
2013-2-14,36.7,31.7,24.6,36.4,30.7,24.4,99,96,81,29.64,29.55,20,6,21,0.01
2013-2-15,34.9,29.7,23.9,30.3,25.5,19.2,92,84,76,29.83,29.64,19,5,27,0.01
2013-2-16,28.9,22.6,15.8,21.6,18.1,12.2,99,84,52,29.82,29.69,11,3,12,0.00
2013-2-17,23.7,15.9,5.0,17.5,11.3,1.5,99,83,55,29.96,29.71,16,4,16,0.00
2013-2-18,44.6,26.7,4.6,31.7,17.0,1.7,90,69,47,29.98,29.51,10,4,12,0.02
2013-2-19,46.4,29.6,15.3,39.7,27.2,10.5,99,91,54,29.69,29.35,22,12,31,0.12
2013-2-20,20.7,17.1,14.0,16.9,12.7,8.9,98,83,63,29.94,29.70,21,10,24,0.00
2013-2-21,24.6,18.7,15.3,17.9,15.1,11.6,99,86,66,30.08,29.93,10,3,11,0.01
2013-2-22,37.2,28.4,17.1,36.8,26.9,14.2,99,94,83,30.01,29.67,10,4,11,0.01
2013-2-23,34.3,32.3,28.0,31.9,28.2,24.4,94,85,73,29.73,29.64,11,4,15,0.00
2013-2-24,32.2,28.4,25.0,25.6,23.3,19.9,87,81,73,29.89,29.64,11,5,14,0.00
2013-2-25,45.7,31.0,19.8,33.1,24.1,19.6,99,78,45,29.96,29.80,4,1,6,0.00
2013-2-26,36.7,33.0,28.8,36.4,29.6,23.0,99,87,69,29.84,29.28,9,5,12,0.59
2013-2-27,40.5,36.5,31.8,39.7,36.2,31.6,99,99,94,29.40,29.26,13,5,19,0.19
2013-2-28,33.3,31.4,28.9,33.0,31.2,28.7,99,99,98,29.63,29.34,13,3,16,0.01
2013-3-1,30.0,26.9,24.1,28.7,25.7,23.3,99,95,87,29.77,29.62,12,3,13,0.01
2013-3-2,29.3,25.1,22.6,26.6,23.3,21.9,99,93,81,29.75,29.71,9,2,11,0.00
2013-3-3,26.1,22.4,20.1,24.1,20.3,16.8,99,92,82,29.77,29.71,15,4,15,0.00
2013-3-4,38.3,23.1,9.9,22.6,17.7,9.5,99,82,48,29.87,29.77,9,2,14,0.07
2013-3-5,47.1,30.1,17.1,25.9,20.7,15.7,97,71,33,29.84,29.43,6,3,9,0.00
2013-3-6,45.0,36.3,29.1,32.3,28.7,25.7,99,75,58,29.92,29.44,6,3,10,0.00
2013-3-7,37.4,32.0,28.6,34.5,31.3,28.3,99,97,86,30.09,29.92,8,3,10,0.00
2013-3-8,40.8,29.1,23.5,33.0,27.5,23.3,99,94,69,30.19,30.08,5,1,8,0.01
2013-3-9,55.9,38.5,23.0,34.7,28.8,22.8,99,72,36,30.17,29.87,6,2,8,0.00
2013-3-10,68.5,57.0,47.3,36.1,32.1,28.6,62,40,24,29.86,29.65,11,4,15,0.00
2013-3-11,61.2,51.5,41.2,51.2,43.1,32.1,99,77,34,29.65,29.35,19,5,19,0.79
2013-3-12,40.8,34.8,32.0,36.9,31.1,27.1,98,86,77,29.72,29.52,16,8,22,0.00
2013-3-13,31.6,28.6,25.3,29.2,23.9,16.2,99,83,59,29.89,29.65,17,8,23,0.00
2013-3-14,39.2,29.6,21.6,23.4,20.3,15.1,88,69,46,29.97,29.85,17,6,20,0.00
2013-3-15,42.6,34.8,29.5,36.5,29.8,22.7,99,82,73,29.85,29.61,15,6,17,0.01
2013-3-16,35.6,31.7,27.9,35.4,31.5,27.4,99,99,98,29.75,29.43,3,0,4,0.20
2013-3-17,34.9,29.9,25.3,28.0,25.3,19.9,99,84,63,29.95,29.76,4,1,5,0.00
2013-3-18,44.4,33.5,25.2,44.2,31.6,19.8,99,93,79,29.90,29.36,14,4,18,0.11
2013-3-19,39.7,29.8,24.4,39.5,23.0,17.0,99,76,61,29.69,29.45,27,12,29,0.00
2013-3-20,29.5,25.9,20.1,22.7,18.9,12.6,99,75,60,29.70,29.62,15,7,17,0.00
2013-3-21,27.7,21.0,14.4,25.7,17.9,10.9,99,88,72,29.65,29.59,14,7,17,0.00
2013-3-22,37.9,26.7,22.8,24.4,22.4,19.9,99,85,55,29.76,29.64,14,5,14,0.00
2013-3-23,44.2,30.2,17.2,31.1,23.5,17.0,99,78,51,29.81,29.74,5,1,9,0.00
2013-3-24,35.6,29.9,25.2,26.1,23.6,21.5,94,78,59,29.77,29.27,8,3,8,0.00
2013-3-25,37.2,33.0,30.4,35.9,31.7,24.9,99,95,72,29.57,29.20,6,1,7,0.19
2013-3-26,40.3,33.8,30.4,35.2,31.9,30.1,99,93,72,29.84,29.58,12,3,14,0.02
2013-3-27,42.4,35.8,30.6,32.1,29.9,26.1,99,81,55,29.91,29.82,13,6,18,0.05
2013-3-28,46.0,37.5,32.9,32.9,29.9,27.4,93,74,57,30.00,29.91,11,4,16,0.00
2013-3-29,52.2,40.8,30.4,31.9,26.6,16.0,85,60,26,30.01,29.95,13,4,14,0.00
2013-3-30,58.5,42.5,28.2,27.1,23.2,17.8,81,52,21,29.99,29.75,9,2,17,0.00
2013-3-31,51.4,46.7,42.1,46.7,34.3,21.8,94,64,42,29.75,29.45,15,5,21,0.01
2013-4-1,46.4,36.8,30.4,41.7,23.0,10.4,98,60,29,29.81,29.44,14,7,21,0.00
2013-4-2,40.8,31.1,23.2,22.5,15.4,6.4,94,55,27,29.94,29.81,14,6,20,0.00
2013-4-3,41.4,30.8,20.7,24.1,15.7,9.7,77,55,30,30.17,29.94,15,3,15,0.00
2013-4-4,59.7,38.3,21.6,16.1,9.1,-4.0,72,39,10,30.12,29.72,8,2,11,0.00
2013-4-5,50.7,41.1,28.8,33.9,22.3,9.1,74,49,26,29.96,29.69,8,3,11,0.00
2013-4-6,55.9,41.1,24.4,17.7,10.5,0.3,72,36,11,30.02,29.69,8,3,13,0.00
2013-4-7,73.0,58.0,43.3,47.4,31.7,1.0,78,41,12,29.79,29.56,24,8,32,0.00
2013-4-8,70.3,55.3,38.5,54.9,44.3,35.2,91,69,46,29.81,29.60,14,5,22,0.00
2013-4-9,80.8,63.9,44.6,57.0,50.3,42.0,95,64,40,29.87,29.64,17,4,19,0.00
2013-4-10,75.4,57.9,44.2,67.4,53.8,44.0,99,87,60,29.71,29.57,11,3,19,1.65
2013-4-11,52.2,47.1,42.6,51.9,46.9,42.4,99,99,99,29.69,29.36,7,2,12,0.20
2013-4-12,56.3,44.3,38.3,56.0,43.0,34.9,99,95,81,29.61,29.24,19,7,24,0.24
2013-4-13,42.1,38.8,35.4,39.1,35.0,29.5,99,86,75,29.77,29.60,19,8,21,0.11
2013-4-14,58.1,44.5,32.5,39.2,34.6,28.8,92,70,46,29.89,29.73,9,3,9,0.00
2013-4-15,72.3,60.4,50.5,52.3,45.8,37.1,77,59,45,29.81,29.71,13,4,20,0.00
2013-4-16,66.9,57.2,49.1,62.3,53.8,48.8,99,89,77,29.95,29.73,11,4,17,0.13
2013-4-17,70.3,56.6,45.7,55.4,45.0,39.8,99,70,34,30.05,29.82,5,2,7,0.01
2013-4-18,85.6,70.6,59.7,63.1,57.6,48.2,96,68,29,29.82,29.47,16,6,21,0.00
2013-4-19,70.2,52.0,37.9,62.9,43.9,27.7,99,75,54,29.60,29.18,32,10,33,0.20
2013-4-20,43.0,36.6,30.4,33.7,26.7,21.1,99,69,44,30.15,29.60,17,8,23,0.01
2013-4-21,53.1,39.5,28.2,30.2,26.3,21.5,93,63,29,30.34,30.16,6,2,6,0.00
2013-4-22,68.4,51.0,34.9,34.2,28.8,25.2,72,46,21,30.20,29.97,7,3,10,0.00
2013-4-23,72.5,58.7,42.8,45.1,31.8,23.3,63,38,20,29.99,29.66,11,4,17,0.00
2013-4-24,60.3,46.4,35.1,56.2,43.6,34.8,99,92,48,29.91,29.51,14,5,15,0.56
2013-4-25,52.3,40.5,30.9,43.6,34.2,30.1,99,81,43,30.10,29.91,15,5,22,0.07
2013-4-26,61.9,46.2,30.4,40.3,29.1,14.6,99,61,16,30.23,30.10,8,1,8,0.00
2013-4-27,75.6,56.2,37.9,41.5,31.1,16.2,88,48,11,30.14,29.88,4,1,11,0.00
2013-4-28,55.8,53.4,48.7,55.5,48.3,37.4,99,84,57,29.87,29.65,4,2,7,0.14
2013-4-29,68.7,58.8,52.2,59.3,55.0,51.9,99,89,58,29.76,29.65,8,2,11,0.18
2013-4-30,78.3,63.8,51.1,61.8,53.4,50.7,99,73,39,29.89,29.76,11,2,11,0.00
2013-5-1,83.7,67.7,54.0,57.0,52.6,46.5,94,63,30,30.03,29.89,5,3,8,0.00
2013-5-2,82.0,67.8,55.0,48.8,39.9,33.1,61,38,20,30.08,29.93,4,2,7,0.00
2013-5-3,79.7,66.4,55.2,43.5,35.8,21.5,56,35,13,29.96,29.86,6,3,11,0.00
2013-5-4,74.5,62.9,52.0,43.7,37.2,26.0,60,41,17,29.93,29.82,6,3,7,0.00
2013-5-5,77.0,62.5,51.1,43.2,35.2,15.6,72,41,10,29.88,29.76,5,3,8,0.00
2013-5-6,78.4,63.1,49.3,53.8,42.7,23.2,76,49,27,29.83,29.74,5,2,8,0.00
2013-5-7,77.0,64.3,54.7,59.2,54.6,49.7,96,73,44,29.81,29.73,4,2,6,0.00
2013-5-8,77.9,63.8,55.9,59.2,55.3,51.2,97,76,43,29.77,29.70,4,1,6,0.01
2013-5-9,82.6,66.3,54.3,58.9,48.0,28.6,99,62,15,29.77,29.70,8,1,11,0.00
2013-5-10,74.5,63.7,54.3,64.6,58.4,41.6,99,85,45,29.73,29.55,12,4,21,0.78
2013-5-11,53.8,47.8,43.3,52.6,47.1,43.1,99,97,87,29.65,29.57,11,4,17,0.08
2013-5-12,48.9,42.4,35.2,43.8,32.3,25.0,99,71,41,29.84,29.65,17,7,24,0.01
2013-5-13,53.4,42.5,32.5,31.6,26.8,16.8,88,58,24,29.93,29.81,12,3,15,0.00
2013-5-14,69.8,51.7,34.2,43.1,34.6,26.8,85,55,27,29.91,29.59,10,3,14,0.00
2013-5-15,86.5,69.2,55.4,58.9,49.7,38.4,83,53,23,29.62,29.49,16,5,24,0.00
2013-5-16,83.5,68.5,53.8,52.3,43.1,22.3,83,47,11,29.75,29.55,12,2,12,0.00
2013-5-17,83.8,66.5,53.2,49.1,44.7,40.8,71,48,24,29.90,29.75,6,1,7,0.00
2013-5-18,88.3,69.6,55.6,55.3,48.8,39.5,71,51,22,29.91,29.79,4,1,5,0.00
2013-5-19,85.6,71.6,61.3,67.5,62.8,53.5,99,76,45,29.84,29.72,7,2,9,0.00
2013-5-20,85.6,74.0,62.8,73.5,68.3,62.5,99,84,64,29.78,29.66,11,3,12,0.00
2013-5-21,87.6,76.7,69.3,72.3,66.9,58.3,99,75,41,29.69,29.57,10,4,15,0.00
2013-5-22,86.2,74.9,64.0,66.5,62.6,59.0,99,68,44,29.62,29.49,13,4,20,0.15
2013-5-23,73.8,59.8,41.5,65.0,57.4,41.3,99,93,58,29.81,29.53,9,5,17,0.08
2013-5-24,45.5,41.5,35.8,41.6,37.4,33.7,99,86,66,30.07,29.80,11,3,14,0.01
2013-5-25,64.0,47.6,31.5,44.1,35.4,31.2,99,69,32,30.12,30.02,11,2,13,0.00
2013-5-26,70.3,52.2,35.8,45.6,35.7,26.6,99,62,21,30.08,29.99,8,1,15,0.00
2013-5-27,57.4,50.7,39.7,53.9,45.6,38.0,99,84,56,30.03,29.83,5,1,8,0.07
2013-5-28,82.6,67.1,51.6,71.6,60.6,51.4,99,82,55,29.83,29.68,11,4,18,0.25
2013-5-29,87.8,77.1,69.1,68.9,62.5,59.2,91,62,39,29.83,29.72,14,5,17,0.00
2013-5-30,90.7,77.6,69.1,69.9,62.9,55.4,85,63,34,29.93,29.82,8,3,11,0.00
2013-5-31,87.8,74.0,65.3,71.2,65.4,63.2,99,77,47,29.86,29.73,17,4,18,0.37
2013-6-1,82.0,73.0,65.3,72.0,68.4,65.0,99,87,66,29.76,29.55,15,5,17,0.11
2013-6-2,75.7,68.5,60.8,67.2,61.8,56.9,99,81,57,29.70,29.54,17,5,18,0.26
2013-6-3,67.3,57.8,46.2,57.8,47.5,33.5,92,71,36,29.86,29.69,11,2,11,0.00
2013-6-4,73.2,57.3,42.4,50.4,43.9,39.0,99,66,31,29.95,29.85,8,2,9,0.00
2013-6-5,80.2,63.9,49.3,57.0,50.0,43.6,86,64,35,29.92,29.72,4,1,6,0.00
2013-6-6,61.9,58.4,54.3,61.6,56.9,51.3,99,95,75,29.72,29.59,6,2,7,0.25
2013-6-7,59.9,55.9,54.0,59.6,55.6,53.7,99,99,99,29.67,29.61,4,1,8,0.02
2013-6-8,70.9,60.5,54.9,60.4,56.7,54.4,99,88,61,29.87,29.66,7,2,9,0.00
2013-6-9,81.7,67.1,55.8,66.7,61.4,54.9,98,83,54,29.92,29.76,3,2,5,0.00
2013-6-10,72.3,67.1,63.5,72.1,66.7,63.2,99,98,91,29.76,29.54,8,2,12,0.79
2013-6-11,79.2,68.7,63.0,69.0,65.4,62.7,99,90,61,29.68,29.56,11,4,14,0.01
2013-6-12,80.6,71.7,64.0,73.6,68.7,63.8,99,91,64,29.70,29.48,10,2,10,0.02
2013-6-13,74.7,65.3,59.9,69.5,61.8,54.9,99,90,59,29.64,29.30,13,4,25,0.50
2013-6-14,74.1,62.1,53.6,63.9,57.8,52.8,99,87,61,29.85,29.64,9,3,9,0.00
2013-6-15,82.9,64.8,48.9,63.5,54.5,47.7,99,75,30,29.91,29.75,8,2,9,0.01
2013-6-16,80.8,70.1,63.7,71.5,66.2,60.7,99,88,62,29.76,29.63,14,5,17,0.24
2013-6-17,84.7,70.4,63.0,73.0,64.7,60.3,99,84,47,29.74,29.67,7,2,14,0.01
2013-6-18,79.9,67.6,57.6,68.2,61.4,51.8,99,82,57,29.80,29.65,8,1,8,0.00
2013-6-19,77.2,63.5,51.8,58.3,51.8,47.6,99,69,39,29.94,29.79,4,1,8,0.00
2013-6-20,81.7,66.7,51.8,57.4,52.9,48.3,98,65,35,30.01,29.93,8,1,11,0.00
2013-6-21,86.4,70.8,56.8,63.2,58.5,53.4,95,68,38,30.03,29.92,5,1,8,0.00
2013-6-22,88.7,77.6,65.5,71.6,66.4,61.2,86,69,54,29.94,29.82,8,3,11,0.00
2013-6-23,91.2,80.1,70.0,72.8,67.5,63.2,94,68,40,29.91,29.81,11,4,11,0.00
2013-6-24,90.1,78.9,66.9,70.1,65.9,61.6,92,67,39,29.91,29.77,12,4,14,0.00
2013-6-25,90.5,75.6,65.1,74.8,70.0,64.3,99,84,49,29.81,29.64,14,5,24,1.88
2013-6-26,82.2,72.9,65.8,73.8,69.9,65.6,99,91,71,29.72,29.59,8,3,11,0.43
2013-6-27,81.5,71.0,66.6,75.2,69.5,66.3,99,95,74,29.59,29.44,5,1,8,0.22
2013-6-28,81.3,68.6,61.5,72.2,65.4,61.3,99,91,56,29.43,29.31,13,3,17,0.09
2013-6-29,79.5,67.9,61.3,71.4,65.2,61.1,99,92,67,29.49,29.33,5,2,8,0.00
2013-6-30,75.6,67.8,61.5,71.0,66.0,61.3,99,94,77,29.67,29.48,5,1,6,0.01
2013-7-1,73.4,66.6,63.1,72.4,66.3,62.9,99,99,95,29.77,29.64,3,1,3,0.87
2013-7-2,81.0,69.2,61.2,74.1,67.0,60.9,99,93,71,29.84,29.74,4,1,7,0.00
2013-7-3,85.5,74.4,64.2,77.8,69.7,64.0,99,87,60,29.92,29.83,9,2,9,0.00
2013-7-4,79.0,72.4,67.8,74.5,70.4,67.6,99,94,77,29.95,29.90,9,3,12,0.11
2013-7-5,78.4,71.8,68.4,73.7,70.2,68.1,99,95,80,29.93,29.87,8,2,11,0.25
2013-7-6,84.2,73.2,68.4,75.6,71.1,68.1,99,94,70,29.94,29.79,8,2,8,0.18
2013-7-7,79.2,72.3,67.3,71.4,68.6,64.6,99,89,68,29.87,29.78,8,4,12,0.01
2013-7-8,84.9,72.4,64.6,73.9,68.7,64.2,99,89,64,29.89,29.82,8,3,11,0.56
2013-7-9,87.3,74.7,68.4,79.8,72.7,68.1,99,94,73,29.84,29.72,11,4,21,0.57
2013-7-10,86.4,72.7,66.6,82.2,71.9,66.3,99,97,81,29.76,29.57,24,4,30,1.02
2013-7-11,78.6,69.4,60.6,68.9,63.0,56.9,99,83,49,29.81,29.70,6,1,10,0.00
2013-7-12,80.8,67.8,57.6,72.2,64.0,57.3,99,89,58,29.90,29.81,4,1,5,0.00
2013-7-13,84.2,72.8,61.2,72.6,67.7,60.9,99,86,60,30.00,29.89,2,1,6,0.00
2013-7-14,87.8,77.1,67.6,76.4,72.2,67.4,99,86,61,30.05,29.99,6,1,7,0.00
2013-7-15,94.6,80.8,72.3,78.5,74.6,72.1,99,83,51,30.11,30.03,5,1,8,0.00
2013-7-16,91.2,79.4,72.1,83.6,76.2,71.9,99,91,65,30.11,30.03,8,2,10,0.11
2013-7-17,94.1,82.2,73.2,80.0,74.7,71.2,99,81,52,30.08,29.95,8,2,11,0.00
2013-7-18,93.9,83.4,74.1,81.0,75.5,72.1,99,79,51,29.97,29.80,8,3,11,0.00
2013-7-19,93.9,82.9,75.6,77.5,75.5,72.2,99,80,52,29.81,29.62,12,5,15,0.00
2013-7-20,79.2,72.6,66.7,76.4,71.5,66.5,99,96,87,29.71,29.59,11,3,11,0.57
2013-7-21,85.5,73.4,66.4,78.2,70.4,66.1,99,91,64,29.77,29.69,4,1,6,0.28
2013-7-22,74.5,68.7,64.0,74.2,68.4,63.8,99,99,99,29.76,29.55,2,0,3,0.04
2013-7-23,85.5,72.1,62.8,78.0,68.6,62.5,99,90,66,29.58,29.44,10,2,10,0.05
2013-7-24,73.9,65.1,54.3,64.1,57.0,52.8,96,76,52,29.80,29.59,8,2,10,0.00
2013-7-25,80.8,65.1,53.1,58.7,54.9,52.1,99,74,37,29.88,29.80,4,1,8,0.00
2013-7-26,82.8,68.1,52.9,63.2,56.5,52.6,99,71,37,29.88,29.75,5,2,8,0.00
2013-7-27,69.3,65.4,63.0,68.5,64.3,59.8,99,96,85,29.75,29.58,11,3,11,0.21
2013-7-28,72.1,62.6,53.4,63.2,55.1,49.9,99,79,49,29.80,29.63,14,4,14,0.28
2013-7-29,71.4,61.6,53.4,60.7,56.6,52.9,99,85,53,29.96,29.79,11,3,13,0.00
2013-7-30,81.0,66.2,53.6,65.3,59.5,53.3,99,82,46,30.01,29.93,7,1,8,0.00
2013-7-31,79.3,68.8,60.6,68.9,64.6,60.4,99,88,63,29.93,29.72,8,2,9,0.00
2013-8-1,82.0,69.7,63.0,70.0,64.1,58.3,99,84,51,29.71,29.63,9,4,14,0.08
2013-8-2,74.7,65.8,58.8,66.8,61.5,57.3,99,87,57,29.77,29.67,8,4,11,0.11
2013-8-3,81.3,70.8,59.5,69.4,61.4,48.6,99,77,33,29.78,29.70,9,3,12,0.01
2013-8-4,75.6,63.9,56.3,63.6,57.9,55.0,99,83,51,29.90,29.77,10,2,10,0.70
2013-8-5,74.3,62.8,54.3,62.0,57.0,53.0,99,83,49,29.91,29.78,5,1,5,0.00
2013-8-6,79.0,68.0,57.7,64.7,61.2,57.5,99,81,54,29.80,29.73,6,1,8,0.00
2013-8-7,79.3,69.5,63.1,75.1,68.1,62.5,99,95,81,29.75,29.67,6,2,8,0.38
2013-8-8,84.2,74.2,69.3,78.2,73.2,69.0,99,97,75,29.75,29.69,8,2,8,0.53
2013-8-9,81.5,70.5,60.6,70.1,63.0,50.1,99,80,43,29.79,29.69,8,2,11,0.01
2013-8-10,79.3,68.2,60.3,68.9,62.1,58.7,99,82,58,29.89,29.80,6,1,7,0.00
2013-8-11,82.4,69.8,61.0,64.1,61.4,59.7,99,77,48,29.91,29.82,4,1,11,0.00
2013-8-12,83.7,70.8,60.8,70.4,65.4,60.5,99,85,56,29.85,29.62,7,2,9,0.00
2013-8-13,72.7,66.3,53.8,70.1,60.5,48.0,99,83,51,29.76,29.59,8,3,11,0.00
2013-8-14,71.6,59.4,52.7,58.2,52.4,48.1,99,79,46,29.93,29.76,8,2,10,0.00
2013-8-15,76.5,59.8,48.2,59.1,52.0,47.9,99,79,39,29.97,29.88,6,1,7,0.00
2013-8-16,77.9,63.2,51.3,63.5,56.2,51.0,99,81,42,29.96,29.90,3,0,5,0.00
2013-8-17,81.5,66.4,54.5,66.1,59.1,54.2,99,80,46,30.01,29.96,3,0,4,0.00
2013-8-18,77.0,66.3,54.5,66.7,62.3,54.2,99,88,68,30.00,29.90,4,1,7,0.00
2013-8-19,84.6,69.9,62.1,70.5,62.7,56.7,99,81,40,29.92,29.85,8,2,8,0.00
2013-8-20,89.6,73.0,61.5,66.7,62.0,56.3,98,73,34,29.96,29.87,6,1,8,0.00
2013-8-21,88.2,73.7,61.9,68.6,64.3,60.8,99,76,40,29.97,29.83,7,2,8,0.00
2013-8-22,85.1,74.0,66.6,75.6,70.1,66.3,99,88,65,29.87,29.77,7,3,10,0.20
2013-8-23,84.6,72.6,59.0,73.5,62.5,49.9,99,75,32,29.96,29.80,4,1,9,0.00
2013-8-24,86.0,68.7,57.0,65.4,56.2,44.8,98,71,24,30.09,29.96,4,1,5,0.00
2013-8-25,87.1,71.0,55.8,63.6,59.1,55.5,99,71,37,30.11,29.99,7,2,11,0.00
2013-8-26,86.7,75.8,66.6,69.6,63.5,59.0,82,67,47,30.00,29.80,11,5,12,0.00
2013-8-27,81.7,74.5,68.7,76.2,72.6,68.5,99,94,76,29.83,29.68,10,3,14,1.50
2013-8-28,77.4,73.7,68.7,77.1,73.4,68.5,99,99,95,29.75,29.61,10,3,13,0.19
2013-8-29,88.3,74.9,68.2,77.8,70.9,67.9,99,89,54,29.85,29.75,4,1,7,0.00
2013-8-30,88.9,75.3,63.9,74.6,68.2,63.6,99,81,52,29.81,29.60,8,2,12,0.00
2013-8-31,85.6,75.4,68.0,74.7,70.9,67.7,99,87,59,29.63,29.52,8,2,10,0.00
2013-9-1,82.6,73.8,67.6,75.7,71.3,67.4,99,92,70,29.62,29.54,4,1,8,0.11
2013-9-2,77.9,71.2,63.9,75.8,69.1,62.1,99,93,70,29.65,29.54,7,2,11,0.01
2013-9-3,68.9,61.8,56.3,62.1,57.7,54.6,99,87,64,29.81,29.64,8,2,16,0.00
2013-9-4,80.8,66.3,54.5,61.0,57.6,53.9,99,77,40,29.89,29.81,11,4,13,0.00
2013-9-5,73.4,64.8,52.0,63.6,55.8,45.3,99,75,37,30.00,29.83,7,2,10,0.00
2013-9-6,78.6,60.0,46.6,57.1,48.7,40.1,99,73,26,30.04,29.88,4,1,6,0.00
2013-9-7,79.9,66.9,53.1,69.1,58.5,49.4,99,76,51,29.88,29.71,6,2,8,0.00
2013-9-8,77.5,68.3,55.9,69.9,64.1,52.4,99,87,62,29.84,29.69,5,1,6,0.00
2013-9-9,80.1,66.4,52.5,74.4,64.0,51.3,99,92,76,29.85,29.76,4,1,7,0.00
2013-9-10,96.3,82.6,73.6,77.0,72.9,67.4,96,75,39,29.87,29.77,12,5,12,0.00
2013-9-11,94.1,81.1,74.5,75.9,72.4,64.3,93,77,39,29.90,29.75,7,3,9,0.00
2013-9-12,75.4,68.7,59.4,72.6,67.2,59.1,99,95,61,29.76,29.59,7,2,10,0.56
2013-9-13,59.7,56.1,51.6,59.5,54.1,46.0,99,93,78,29.84,29.65,9,2,9,0.15
2013-9-14,68.7,54.9,45.3,50.8,47.4,43.8,99,78,48,29.93,29.83,4,1,7,0.01
2013-9-15,66.9,56.7,47.1,58.4,51.8,46.9,99,85,58,29.94,29.83,7,1,9,0.04
2013-9-16,67.6,58.5,49.3,60.4,55.4,49.0,99,90,69,30.08,29.87,6,1,11,0.01
2013-9-17,70.5,54.5,42.4,53.2,47.5,42.2,99,81,43,30.15,30.00,2,1,5,0.01
2013-9-18,73.2,59.8,48.9,61.1,54.4,45.8,99,84,59,30.00,29.84,5,1,8,0.00
2013-9-19,76.6,66.9,59.5,68.8,65.2,59.3,99,95,73,29.88,29.76,8,3,11,0.00
2013-9-20,82.9,71.8,65.5,74.3,69.3,65.2,99,92,73,29.78,29.56,11,3,21,0.34
2013-9-21,69.1,63.3,56.8,67.9,62.0,56.6,99,96,75,29.59,29.45,12,3,13,1.28
2013-9-22,58.1,54.5,51.8,57.8,49.6,45.1,99,84,66,29.81,29.59,8,2,10,0.00
2013-9-23,59.9,53.0,45.0,51.3,48.9,44.7,99,87,65,29.92,29.80,2,0,2,0.00
2013-9-24,69.4,51.7,39.4,54.9,47.3,39.1,99,87,49,29.90,29.74,3,0,4,0.00
2013-9-25,72.1,56.1,44.4,59.1,51.1,44.2,99,86,47,29.76,29.67,2,0,3,0.00
2013-9-26,76.3,59.0,46.9,58.5,50.6,43.7,99,78,32,29.88,29.73,6,1,8,0.00
2013-9-27,73.4,59.6,51.1,59.2,54.2,50.8,99,85,49,29.98,29.87,3,0,4,0.00
2013-9-28,78.1,61.4,50.9,60.8,55.4,50.6,99,84,46,29.99,29.86,6,1,8,0.00
2013-9-29,72.1,62.0,54.3,63.6,58.9,54.1,99,90,66,29.87,29.75,5,2,6,0.05
2013-9-30,67.5,61.7,58.8,65.1,61.3,58.6,99,98,90,29.79,29.74,6,2,8,0.05
2013-10-1,78.8,65.9,58.6,66.8,60.8,58.4,99,85,53,29.84,29.75,8,3,11,0.00
2013-10-2,81.0,68.3,60.4,69.1,64.5,60.2,99,88,61,29.87,29.78,9,3,11,0.00
2013-10-3,80.1,68.1,60.4,74.3,66.0,60.2,99,93,69,29.85,29.77,11,2,11,0.02
2013-10-4,79.5,70.5,66.0,70.3,68.0,65.8,99,92,67,29.84,29.79,8,3,10,0.00
2013-10-5,74.1,68.6,64.0,72.2,68.2,63.8,99,99,92,29.84,29.72,4,1,11,0.14
2013-10-6,78.4,69.7,55.0,71.9,67.3,54.8,99,93,70,29.72,29.47,13,4,18,0.41
2013-10-7,59.2,52.2,45.0,54.8,47.7,43.9,99,86,59,29.88,29.50,14,6,18,0.54
2013-10-8,68.4,53.4,43.2,55.1,47.0,42.6,99,82,40,30.06,29.89,2,1,7,0.00
2013-10-9,69.4,54.3,43.9,51.0,46.9,42.1,99,79,38,30.08,29.99,4,0,4,0.00
2013-10-10,68.5,53.4,42.1,51.4,46.6,40.4,99,80,46,29.99,29.87,4,0,4,0.00
2013-10-11,76.3,56.5,44.4,55.8,49.8,44.2,99,82,39,29.90,29.82,3,0,3,0.00
2013-10-12,75.7,61.0,50.4,64.7,57.1,48.1,99,88,62,29.90,29.84,2,0,5,0.00
2013-10-13,67.6,61.4,55.8,65.8,60.8,55.2,99,98,91,30.06,29.89,7,1,8,0.06
2013-10-14,66.7,54.8,47.3,56.5,50.2,44.0,99,86,58,30.12,30.01,4,1,8,0.00
2013-10-15,62.4,55.4,45.5,61.6,54.8,44.2,99,98,91,30.01,29.71,4,1,7,0.02
2013-10-16,66.9,60.0,48.7,66.7,59.1,47.7,99,97,87,29.71,29.58,13,4,16,0.65
2013-10-17,57.6,48.2,42.8,50.6,47.0,42.5,99,96,72,29.69,29.55,11,3,14,0.14
2013-10-18,63.3,51.4,41.9,47.4,44.7,41.6,99,80,49,29.75,29.63,11,5,14,0.00
2013-10-19,51.3,44.7,39.9,45.8,43.2,39.7,99,95,77,29.68,29.52,10,3,15,0.26
2013-10-20,60.6,47.8,38.5,41.2,39.3,36.2,99,75,41,29.73,29.65,13,5,18,0.01
2013-10-21,65.5,53.0,45.7,51.1,41.8,36.3,99,68,37,29.74,29.59,11,5,15,0.15
2013-10-22,50.4,42.1,34.2,48.7,32.6,27.3,99,71,45,29.72,29.62,11,5,14,0.02
2013-10-23,44.2,38.1,33.6,42.3,34.3,29.5,99,87,61,29.67,29.53,11,3,17,0.13
2013-10-24,43.9,36.0,31.1,34.5,32.3,29.8,99,87,60,29.89,29.66,19,6,19,0.05
2013-10-25,49.3,37.9,32.4,38.3,31.9,25.8,99,82,44,30.06,29.89,13,5,14,0.06
2013-10-26,45.0,39.4,34.3,39.1,28.9,25.3,99,67,51,29.94,29.61,17,7,20,0.04
2013-10-27,50.2,40.9,32.0,40.4,34.5,31.8,99,80,51,29.84,29.73,11,3,11,0.01
2013-10-28,57.2,44.0,33.3,42.6,37.3,31.7,99,79,56,30.08,29.82,6,1,7,0.00
2013-10-29,59.0,43.4,32.7,47.1,38.1,32.5,99,84,45,30.15,30.00,4,0,5,0.00
2013-10-30,66.4,51.6,37.0,54.8,45.2,36.8,99,80,53,29.99,29.80,5,1,7,0.00
2013-10-31,64.8,60.2,56.5,61.1,59.1,55.1,99,96,80,29.80,29.09,22,6,22,0.32
2013-11-1,59.5,52.4,46.4,59.3,47.9,43.2,99,85,72,29.46,29.03,24,8,27,0.14
2013-11-2,49.1,45.2,41.4,45.9,43.9,41.1,99,96,84,29.77,29.43,12,5,14,0.09
2013-11-3,50.5,39.5,29.5,41.1,35.4,26.9,99,87,54,30.19,29.78,4,0,7,0.01
2013-11-4,47.5,36.5,28.0,28.4,25.9,22.4,91,68,37,30.24,30.11,5,2,5,0.00
2013-11-5,59.7,49.3,41.7,42.7,36.5,27.4,77,62,49,30.17,30.02,6,2,8,0.00
2013-11-6,64.8,54.7,45.9,57.8,44.8,34.1,99,71,50,30.02,29.66,16,6,19,0.24
2013-11-7,48.2,40.9,37.9,47.9,35.3,25.9,99,82,57,29.86,29.70,17,7,21,0.18
2013-11-8,40.6,34.9,29.1,34.2,29.9,25.7,99,83,55,30.02,29.83,11,4,21,0.00
2013-11-9,58.3,45.2,29.8,39.6,32.0,26.6,92,63,36,29.98,29.64,18,7,21,0.00
2013-11-10,50.4,42.7,35.6,39.8,31.0,25.6,78,63,48,30.02,29.69,17,8,23,0.00
2013-11-11,46.6,38.0,29.5,40.4,31.4,27.6,99,79,48,30.01,29.78,11,4,14,0.13
2013-11-12,34.7,29.9,26.6,30.8,24.7,17.3,99,82,60,30.21,29.95,12,3,17,0.08
2013-11-13,38.1,30.2,24.3,21.1,17.9,12.6,82,61,37,30.25,30.01,17,7,20,0.01
2013-11-14,51.1,38.5,28.0,19.6,16.0,8.3,69,43,18,30.00,29.83,16,8,19,0.01
2013-11-15,50.4,44.6,36.5,28.5,19.7,14.1,53,37,26,29.89,29.82,11,5,17,0.00
2013-11-16,59.4,49.5,39.0,52.2,43.3,29.1,93,79,55,29.93,29.69,7,3,15,0.00
2013-11-17,60.8,57.3,50.9,59.2,54.8,39.6,99,92,65,29.69,29.20,27,9,36,0.17
2013-11-18,50.5,41.8,34.2,40.6,33.5,25.1,86,72,61,29.84,29.35,26,13,30,0.00
2013-11-19,40.1,33.2,24.8,26.1,23.9,21.5,90,69,52,30.14,29.84,11,3,12,0.00
2013-11-20,46.8,34.9,24.4,26.0,17.3,5.4,95,56,19,30.16,30.03,8,3,10,0.00
2013-11-21,45.0,40.3,36.7,42.8,31.6,11.9,97,75,34,30.09,29.94,7,3,8,0.04
2013-11-22,48.7,43.2,33.8,48.5,42.7,30.9,99,98,89,30.05,29.86,12,5,15,0.17
2013-11-23,33.6,27.3,17.8,30.3,20.9,3.1,99,78,46,30.12,29.95,19,8,21,0.00
2013-11-24,21.6,18.9,17.2,11.1,6.7,2.7,75,59,50,30.25,30.12,19,8,22,0.00
2013-11-25,32.5,24.5,16.5,18.0,11.6,7.3,80,59,39,30.18,29.89,13,6,20,0.00
2013-11-26,33.1,30.7,29.1,30.0,28.7,21.1,99,92,64,29.90,29.58,11,2,17,0.00
2013-11-27,31.6,26.1,22.5,31.4,20.8,11.8,99,81,62,29.86,29.54,17,5,24,0.00
2013-11-28,27.7,22.7,16.3,19.2,15.1,9.8,89,72,55,30.13,29.87,11,4,14,0.00
2013-11-29,33.1,23.8,13.1,24.1,18.1,11.2,98,80,57,30.36,30.13,3,0,5,0.02
2013-11-30,42.3,31.2,24.1,26.5,21.7,17.3,78,68,46,30.31,29.91,8,4,12,0.01
2013-12-1,40.5,36.6,33.3,31.7,28.0,26.3,88,71,61,29.90,29.71,7,3,12,0.01
2013-12-2,39.2,34.7,31.3,36.4,32.2,29.4,99,91,72,29.70,29.60,4,1,5,0.00
2013-12-3,50.7,39.6,31.5,41.9,36.6,31.2,99,89,68,29.65,29.60,6,2,7,0.00
2013-12-4,57.9,50.7,43.0,49.9,45.4,39.9,91,82,74,29.69,29.54,7,3,11,0.00
2013-12-5,60.6,49.9,32.0,58.4,45.1,29.1,99,84,65,29.85,29.52,15,6,18,0.01
2013-12-6,32.5,29.2,25.2,31.4,27.9,24.9,99,95,80,30.05,29.83,0,0,0,0.00
2013-12-7,25.0,21.5,15.6,24.8,15.5,10.3,99,78,63,30.30,30.06,8,1,11,0.00
2013-12-8,27.0,22.3,15.4,26.7,16.5,10.6,99,79,62,30.30,29.75,5,2,11,0.00
2013-12-9,32.5,29.1,23.2,32.3,25.6,16.8,99,87,72,29.88,29.67,21,9,23,0.00
2013-12-10,27.9,21.2,18.0,17.5,9.8,-1.4,80,63,30,29.96,29.72,24,8,26,0.00
2013-12-11,23.2,18.6,15.1,19.7,13.6,7.0,99,81,61,30.11,29.95,14,8,15,0.00
2013-12-12,16.7,13.2,5.7,8.2,-0.2,-9.3,85,58,30,30.16,29.94,17,8,18,0.00
2013-12-13,32.9,22.4,15.8,16.7,8.9,-2.2,75,56,40,29.98,29.90,16,5,19,0.00
2013-12-14,32.5,27.7,23.0,32.3,26.3,15.8,99,94,69,29.96,29.41,4,0,4,0.00
2013-12-15,31.5,20.4,11.5,31.2,19.0,8.2,99,94,85,29.76,29.42,13,3,17,0.00
2013-12-16,28.0,15.7,8.1,18.3,9.9,5.1,93,78,49,29.89,29.72,11,3,12,0.00
2013-12-17,25.9,23.4,19.2,25.7,21.9,18.9,99,94,82,29.77,29.65,15,5,17,0.00
2013-12-18,29.3,24.6,22.6,23.7,19.5,14.5,97,81,60,29.88,29.72,15,7,18,0.00
2013-12-19,45.1,38.1,28.8,34.1,25.4,15.3,71,60,49,29.78,29.70,11,5,14,0.01
2013-12-20,54.0,46.3,41.5,53.7,42.4,30.4,99,87,56,29.70,29.56,11,6,20,0.21
2013-12-21,55.0,47.7,38.1,54.8,47.5,37.9,99,99,99,29.57,29.27,13,3,17,1.20
2013-12-22,61.3,50.6,37.2,58.7,47.7,37.0,99,91,52,29.73,29.19,21,8,30,0.39
2013-12-23,38.3,31.6,25.5,38.0,27.6,18.0,99,86,68,30.02,29.73,14,7,18,0.01
2013-12-24,25.3,17.1,13.1,21.6,11.8,6.6,96,80,58,30.22,29.99,15,7,17,0.00
2013-12-25,25.9,19.1,10.0,20.1,12.3,7.6,92,75,56,30.20,29.88,9,2,13,0.00
2013-12-26,29.8,26.6,21.6,28.2,20.9,15.6,99,80,61,30.04,29.80,20,6,24,0.00
2013-12-27,41.2,34.3,25.2,28.8,24.8,18.1,75,68,59,30.06,29.92,11,4,14,0.00
2013-12-28,54.7,43.0,36.0,31.1,28.9,27.1,71,58,36,29.92,29.73,12,6,17,0.00
2013-12-29,42.6,38.6,26.4,39.5,31.2,22.3,99,78,47,29.73,29.45,12,4,14,0.18
2013-12-30,26.1,20.2,16.9,25.8,18.2,14.1,99,92,73,29.97,29.67,0,0,0,0.00
2013-12-31,20.3,17.1,14.9,18.9,12.6,6.2,98,83,62,30.03,29.78,0,0,0,0.00
2014-1-1,24.6,20.0,16.7,21.6,18.0,15.8,97,92,83,30.05,29.84,0,0,0,0.00
2014-1-2,22.5,17.3,10.4,19.8,15.6,8.8,96,93,85,29.84,29.56,0,0,0,0.00